sensor_id;sensor_type;location;lat;lon;timestamp;pressure;altitude;pressure_sealevel;temperature;humidity
17525;BME280;40431;52.198;9.902;2023-04-04T00:00:13;102169.72;;;1.17;94.94
17525;BME280;40431;52.198;9.902;2023-04-04T00:02:40;102177.75;;;1.14;95.16
17525;BME280;40431;52.198;9.902;2023-04-04T00:05:07;102169.69;;;1.10;96.27
17525;BME280;40431;52.198;9.902;2023-04-04T00:07:33;102175.91;;;1.10;96.68
17525;BME280;40431;52.198;9.902;2023-04-04T00:10:01;102181.25;;;1.10;96.71
17525;BME280;40431;52.198;9.902;2023-04-04T00:12:28;102170.56;;;1.10;94.93
17525;BME280;40431;52.198;9.902;2023-04-04T00:14:54;102178.59;;;1.10;95.04
17525;BME280;40431;52.198;9.902;2023-04-04T00:17:21;102175.91;;;1.10;94.78
17525;BME280;40431;52.198;9.902;2023-04-04T00:19:48;102175.91;;;1.10;94.45
17525;BME280;40431;52.198;9.902;2023-04-04T00:22:14;102178.63;;;1.12;94.50
17525;BME280;40431;52.198;9.902;2023-04-04T00:24:42;102183.09;;;1.14;93.49
17525;BME280;40431;52.198;9.902;2023-04-04T00:27:10;102183.06;;;1.11;93.21
17525;BME280;40431;52.198;9.902;2023-04-04T00:29:36;102180.38;;;1.11;92.55
17525;BME280;40431;52.198;9.902;2023-04-04T00:32:02;102172.38;;;1.11;94.03
17525;BME280;40431;52.198;9.902;2023-04-04T00:34:29;102182.16;;;1.08;93.54
17525;BME280;40431;52.198;9.902;2023-04-04T00:36:55;102181.25;;;1.07;94.65
17525;BME280;40431;52.198;9.902;2023-04-04T00:39:22;102173.22;;;1.01;94.64
17525;BME280;40431;52.198;9.902;2023-04-04T00:41:50;102175.00;;;1.02;94.51
17525;BME280;40431;52.198;9.902;2023-04-04T00:44:19;102177.66;;;1.02;96.38
17525;BME280;40431;52.198;9.902;2023-04-04T00:46:45;102170.53;;;1.01;94.94
17525;BME280;40431;52.198;9.902;2023-04-04T00:49:11;102172.31;;;0.99;95.56
17525;BME280;40431;52.198;9.902;2023-04-04T00:51:38;102171.41;;;0.97;95.27
17525;BME280;40431;52.198;9.902;2023-04-04T00:54:04;102175.00;;;0.97;95.96
17525;BME280;40431;52.198;9.902;2023-04-04T00:56:31;102175.00;;;0.96;94.68
17525;BME280;40431;52.198;9.902;2023-04-04T00:58:59;102170.47;;;0.89;94.52
17525;BME280;40431;52.198;9.902;2023-04-04T01:01:27;102173.16;;;0.89;93.89
17525;BME280;40431;52.198;9.902;2023-04-04T01:03:55;102174.94;;;0.87;94.59
17525;BME280;40431;52.198;9.902;2023-04-04T01:06:22;102162.47;;;0.89;93.00
17525;BME280;40431;52.198;9.902;2023-04-04T01:08:50;102164.22;;;0.85;93.22
17525;BME280;40431;52.198;9.902;2023-04-04T01:11:17;102172.28;;;0.87;92.38
17525;BME280;40431;52.198;9.902;2023-04-04T01:13:43;102161.59;;;0.87;92.14
17525;BME280;40431;52.198;9.902;2023-04-04T01:16:10;102166.03;;;0.86;92.71
17525;BME280;40431;52.198;9.902;2023-04-04T01:18:39;102170.47;;;0.82;92.05
17525;BME280;40431;52.198;9.902;2023-04-04T01:21:09;102166.88;;;0.80;93.75
17525;BME280;40431;52.198;9.902;2023-04-04T01:23:43;102172.22;;;0.82;94.62
17525;BME280;40431;52.198;9.902;2023-04-04T01:26:13;102177.56;;;0.83;94.53
17525;BME280;40431;52.198;9.902;2023-04-04T01:28:40;102174.03;;;0.80;93.48
17525;BME280;40431;52.198;9.902;2023-04-04T01:31:09;102173.09;;;0.81;94.96
17525;BME280;40431;52.198;9.902;2023-04-04T01:33:43;102179.38;;;0.81;95.25
17525;BME280;40431;52.198;9.902;2023-04-04T01:36:16;102167.75;;;0.79;93.28
17525;BME280;40431;52.198;9.902;2023-04-04T01:38:51;102168.63;;;0.78;93.10
17525;BME280;40431;52.198;9.902;2023-04-04T01:41:20;102164.19;;;0.74;93.25
17525;BME280;40431;52.198;9.902;2023-04-04T01:43:46;102163.28;;;0.75;93.17
17525;BME280;40431;52.198;9.902;2023-04-04T01:46:15;102157.97;;;0.77;93.52
17525;BME280;40431;52.198;9.902;2023-04-04T01:48:42;102155.28;;;0.71;94.33
17525;BME280;40431;52.198;9.902;2023-04-04T01:51:08;102152.56;;;0.63;93.98
17525;BME280;40431;52.198;9.902;2023-04-04T01:53:34;102157.91;;;0.66;96.04
17525;BME280;40431;52.198;9.902;2023-04-04T01:56:01;102148.06;;;0.56;97.09
17525;BME280;40431;52.198;9.902;2023-04-04T01:58:29;102155.22;;;0.61;100.00
17525;BME280;40431;52.198;9.902;2023-04-04T02:00:55;102154.31;;;0.61;100.00
17525;BME280;40431;52.198;9.902;2023-04-04T02:03:22;102152.50;;;0.55;99.96
17525;BME280;40431;52.198;9.902;2023-04-04T02:05:48;102153.38;;;0.53;100.00
17525;BME280;40431;52.198;9.902;2023-04-04T02:08:15;102151.59;;;0.52;100.00
17525;BME280;40431;52.198;9.902;2023-04-04T02:10:41;102149.78;;;0.46;99.26
17525;BME280;40431;52.198;9.902;2023-04-04T02:13:07;102144.31;;;0.29;99.30
17525;BME280;40431;52.198;9.902;2023-04-04T02:15:35;102141.56;;;0.16;99.88
17525;BME280;40431;52.198;9.902;2023-04-04T02:18:02;102141.56;;;0.16;98.64
17525;BME280;40431;52.198;9.902;2023-04-04T02:20:29;102139.84;;;0.22;100.00
17525;BME280;40431;52.198;9.902;2023-04-04T02:22:55;102137.16;;;0.22;100.00
17525;BME280;40431;52.198;9.902;2023-04-04T02:25:23;102135.38;;;0.25;100.00
17525;BME280;40431;52.198;9.902;2023-04-04T02:27:50;102143.38;;;0.24;99.09
17525;BME280;40431;52.198;9.902;2023-04-04T02:30:16;102136.28;;;0.23;100.00
17525;BME280;40431;52.198;9.902;2023-04-04T02:32:44;102132.66;;;0.14;100.00
17525;BME280;40431;52.198;9.902;2023-04-04T02:35:11;102125.50;;;0.10;100.00
17525;BME280;40431;52.198;9.902;2023-04-04T02:37:37;102134.38;;;0.06;100.00
17525;BME280;40431;52.198;9.902;2023-04-04T02:40:05;102128.16;;;0.07;100.00
17525;BME280;40431;52.198;9.902;2023-04-04T02:42:31;102129.03;;;0.06;100.00
17525;BME280;40431;52.198;9.902;2023-04-04T02:44:57;102131.72;;;0.06;100.00
17525;BME280;40431;52.198;9.902;2023-04-04T02:47:24;102129.06;;;0.09;100.00
17525;BME280;40431;52.198;9.902;2023-04-04T02:49:52;102124.63;;;0.11;100.00
17525;BME280;40431;52.198;9.902;2023-04-04T02:52:19;102127.31;;;0.11;100.00
17525;BME280;40431;52.198;9.902;2023-04-04T02:54:46;102117.50;;;0.09;100.00
17525;BME280;40431;52.198;9.902;2023-04-04T02:57:13;102118.38;;;0.09;100.00
17525;BME280;40431;52.198;9.902;2023-04-04T02:59:40;102111.28;;;0.08;100.00
17525;BME280;40431;52.198;9.902;2023-04-04T03:02:06;102115.75;;;0.11;100.00
17525;BME280;40431;52.198;9.902;2023-04-04T03:04:33;102109.47;;;0.04;100.00
17525;BME280;40431;52.198;9.902;2023-04-04T03:07:02;102104.16;;;0.07;100.00
17525;BME280;40431;52.198;9.902;2023-04-04T03:09:29;102104.94;;;-0.08;100.00
17525;BME280;40431;52.198;9.902;2023-04-04T03:11:55;102100.47;;;-0.10;100.00
17525;BME280;40431;52.198;9.902;2023-04-04T03:14:22;102096.88;;;-0.15;100.00
17525;BME280;40431;52.198;9.902;2023-04-04T03:16:50;102096.03;;;-0.10;100.00
17525;BME280;40431;52.198;9.902;2023-04-04T03:19:17;102092.47;;;-0.12;100.00
17525;BME280;40431;52.198;9.902;2023-04-04T03:21:44;102104.91;;;-0.11;100.00
17525;BME280;40431;52.198;9.902;2023-04-04T03:24:11;102087.09;;;-0.15;100.00
17525;BME280;40431;52.198;9.902;2023-04-04T03:26:38;102091.53;;;-0.19;100.00
17525;BME280;40431;52.198;9.902;2023-04-04T03:29:04;102081.66;;;-0.27;100.00
17525;BME280;40431;52.198;9.902;2023-04-04T03:31:31;102091.47;;;-0.26;100.00
17525;BME280;40431;52.198;9.902;2023-04-04T03:33:57;102092.34;;;-0.26;100.00
17525;BME280;40431;52.198;9.902;2023-04-04T03:36:25;102095.00;;;-0.29;100.00
17525;BME280;40431;52.198;9.902;2023-04-04T03:38:51;102088.72;;;-0.36;100.00
17525;BME280;40431;52.198;9.902;2023-04-04T03:41:19;102088.66;;;-0.39;100.00
17525;BME280;40431;52.198;9.902;2023-04-04T03:43:45;102086.91;;;-0.38;100.00
17525;BME280;40431;52.198;9.902;2023-04-04T03:46:12;102090.47;;;-0.38;100.00
17525;BME280;40431;52.198;9.902;2023-04-04T03:48:39;102089.59;;;-0.35;100.00
17525;BME280;40431;52.198;9.902;2023-04-04T03:51:05;102075.41;;;-0.34;100.00
17525;BME280;40431;52.198;9.902;2023-04-04T03:53:32;102079.84;;;-0.33;100.00
17525;BME280;40431;52.198;9.902;2023-04-04T03:55:59;102082.53;;;-0.28;100.00
17525;BME280;40431;52.198;9.902;2023-04-04T03:58:28;102079.00;;;-0.26;100.00
17525;BME280;40431;52.198;9.902;2023-04-04T04:00:55;102070.94;;;-0.34;100.00
17525;BME280;40431;52.198;9.902;2023-04-04T04:03:21;102075.41;;;-0.34;100.00
17525;BME280;40431;52.198;9.902;2023-04-04T04:05:47;102072.72;;;-0.37;100.00
17525;BME280;40431;52.198;9.902;2023-04-04T04:08:14;102072.72;;;-0.37;100.00
17525;BME280;40431;52.198;9.902;2023-04-04T04:10:40;102069.13;;;-0.38;100.00
17525;BME280;40431;52.198;9.902;2023-04-04T04:13:07;102072.66;;;-0.43;100.00
17525;BME280;40431;52.198;9.902;2023-04-04T04:15:35;102070.88;;;-0.43;100.00
17525;BME280;40431;52.198;9.902;2023-04-04T04:18:01;102073.59;;;-0.35;100.00
17525;BME280;40431;52.198;9.902;2023-04-04T04:20:28;102078.09;;;-0.29;100.00
17525;BME280;40431;52.198;9.902;2023-04-04T04:22:54;102073.59;;;-0.38;100.00
17525;BME280;40431;52.198;9.902;2023-04-04T04:25:21;102079.84;;;-0.35;100.00
17525;BME280;40431;52.198;9.902;2023-04-04T04:27:48;102078.03;;;-0.37;100.00
17525;BME280;40431;52.198;9.902;2023-04-04T04:30:17;102071.81;;;-0.36;100.00
17525;BME280;40431;52.198;9.902;2023-04-04T04:32:45;102071.72;;;-0.45;100.00
17525;BME280;40431;52.198;9.902;2023-04-04T04:35:14;102073.50;;;-0.47;100.00
17525;BME280;40431;52.198;9.902;2023-04-04T04:37:40;102075.25;;;-0.49;100.00
17525;BME280;40431;52.198;9.902;2023-04-04T04:40:07;102072.63;;;-0.46;100.00
17525;BME280;40431;52.198;9.902;2023-04-04T04:42:34;102077.91;;;-0.49;100.00
17525;BME280;40431;52.198;9.902;2023-04-04T04:45:01;102076.16;;;-0.51;100.00
17525;BME280;40431;52.198;9.902;2023-04-04T04:47:29;102072.50;;;-0.57;100.00
17525;BME280;40431;52.198;9.902;2023-04-04T04:49:57;102082.25;;;-0.62;100.00
17525;BME280;40431;52.198;9.902;2023-04-04T04:52:23;102076.88;;;-0.64;100.00
17525;BME280;40431;52.198;9.902;2023-04-04T04:54:49;102080.44;;;-0.65;100.00
17525;BME280;40431;52.198;9.902;2023-04-04T04:57:16;102076.00;;;-0.64;100.00
17525;BME280;40431;52.198;9.902;2023-04-04T04:59:42;102082.22;;;-0.64;100.00
17525;BME280;40431;52.198;9.902;2023-04-04T05:02:09;102080.47;;;-0.60;100.00
17525;BME280;40431;52.198;9.902;2023-04-04T05:04:35;102088.50;;;-0.57;100.00
17525;BME280;40431;52.198;9.902;2023-04-04T05:07:03;102079.63;;;-0.55;100.00
17525;BME280;40431;52.198;9.902;2023-04-04T05:09:32;102087.66;;;-0.53;100.00
17525;BME280;40431;52.198;9.902;2023-04-04T05:11:58;102082.34;;;-0.52;100.00
17525;BME280;40431;52.198;9.902;2023-04-04T05:14:25;102084.16;;;-0.51;100.00
17525;BME280;40431;52.198;9.902;2023-04-04T05:16:51;102095.66;;;-0.53;100.00
17525;BME280;40431;52.198;9.902;2023-04-04T05:19:18;102087.63;;;-0.58;100.00
17525;BME280;40431;52.198;9.902;2023-04-04T05:21:44;102100.94;;;-0.55;100.00
17525;BME280;40431;52.198;9.902;2023-04-04T05:24:13;102100.13;;;-0.51;100.00
17525;BME280;40431;52.198;9.902;2023-04-04T05:26:41;102109.88;;;-0.53;100.00
17525;BME280;40431;52.198;9.902;2023-04-04T05:29:07;102105.47;;;-0.51;100.00
17525;BME280;40431;52.198;9.902;2023-04-04T05:31:34;102110.84;;;-0.44;100.00
17525;BME280;40431;52.198;9.902;2023-04-04T05:34:00;102117.09;;;-0.41;100.00
17525;BME280;40431;52.198;9.902;2023-04-04T05:36:32;102110.91;;;-0.38;100.00
17525;BME280;40431;52.198;9.902;2023-04-04T05:38:59;102114.41;;;-0.42;100.00
17525;BME280;40431;52.198;9.902;2023-04-04T05:41:26;102116.16;;;-0.47;100.00
17525;BME280;40431;52.198;9.902;2023-04-04T05:43:53;102117.00;;;-0.50;100.00
17525;BME280;40431;52.198;9.902;2023-04-04T05:46:19;102125.00;;;-0.52;100.00
17525;BME280;40431;52.198;9.902;2023-04-04T05:48:46;102120.56;;;-0.48;100.00
17525;BME280;40431;52.198;9.902;2023-04-04T05:51:12;102128.63;;;-0.40;100.00
17525;BME280;40431;52.198;9.902;2023-04-04T05:53:39;102126.84;;;-0.41;100.00
17525;BME280;40431;52.198;9.902;2023-04-04T05:56:05;102132.25;;;-0.32;100.00
17525;BME280;40431;52.198;9.902;2023-04-04T05:58:33;102129.66;;;-0.26;100.00
17525;BME280;40431;52.198;9.902;2023-04-04T06:01:00;102129.72;;;-0.21;100.00
17525;BME280;40431;52.198;9.902;2023-04-04T06:03:27;102130.59;;;-0.19;100.00
17525;BME280;40431;52.198;9.902;2023-04-04T06:05:53;102128.00;;;-0.13;100.00
17525;BME280;40431;52.198;9.902;2023-04-04T06:08:20;102128.94;;;-0.09;100.00
17525;BME280;40431;52.198;9.902;2023-04-04T06:10:46;102132.56;;;0.02;100.00
17525;BME280;40431;52.198;9.902;2023-04-04T06:13:13;102129.09;;;0.12;100.00
17525;BME280;40431;52.198;9.902;2023-04-04T06:15:41;102138.00;;;0.14;100.00
17525;BME280;40431;52.198;9.902;2023-04-04T06:18:07;102130.97;;;0.23;100.00
17525;BME280;40431;52.198;9.902;2023-04-04T06:20:34;102132.75;;;0.27;100.00
17525;BME280;40431;52.198;9.902;2023-04-04T06:23:00;102135.44;;;0.33;100.00
17525;BME280;40431;52.198;9.902;2023-04-04T06:25:28;102140.84;;;0.39;100.00
17525;BME280;40431;52.198;9.902;2023-04-04T06:27:55;102131.97;;;0.45;100.00
17525;BME280;40431;52.198;9.902;2023-04-04T06:30:23;102137.34;;;0.49;100.00
17525;BME280;40431;52.198;9.902;2023-04-04T06:32:51;102137.38;;;0.54;100.00
17525;BME280;40431;52.198;9.902;2023-04-04T06:35:18;102138.28;;;0.61;100.00
17525;BME280;40431;52.198;9.902;2023-04-04T06:37:45;102138.34;;;0.67;100.00
17525;BME280;40431;52.198;9.902;2023-04-04T06:40:11;102139.25;;;0.75;100.00
17525;BME280;40431;52.198;9.902;2023-04-04T06:42:38;102135.72;;;0.76;100.00
17525;BME280;40431;52.198;9.902;2023-04-04T06:45:05;102135.75;;;0.86;100.00
17525;BME280;40431;52.198;9.902;2023-04-04T06:47:32;102138.44;;;0.90;100.00
17525;BME280;40431;52.198;9.902;2023-04-04T06:50:00;102144.72;;;0.98;100.00
17525;BME280;40431;52.198;9.902;2023-04-04T06:52:26;102141.19;;;1.06;100.00
17525;BME280;40431;52.198;9.902;2023-04-04T06:54:54;102143.00;;;1.16;100.00
17525;BME280;40431;52.198;9.902;2023-04-04T06:57:21;102144.78;;;1.15;99.55
17525;BME280;40431;52.198;9.902;2023-04-04T06:59:47;102145.69;;;1.17;98.79
17525;BME280;40431;52.198;9.902;2023-04-04T07:02:14;102143.94;;;1.26;98.76
17525;BME280;40431;52.198;9.902;2023-04-04T07:04:40;102136.81;;;1.31;98.26
17525;BME280;40431;52.198;9.902;2023-04-04T07:07:08;102135.03;;;1.39;97.92
17525;BME280;40431;52.198;9.902;2023-04-04T07:09:34;102143.09;;;1.42;97.17
17525;BME280;40431;52.198;9.902;2023-04-04T07:12:04;102145.78;;;1.55;97.81
17525;BME280;40431;52.198;9.902;2023-04-04T07:14:30;102147.59;;;1.65;97.63
17525;BME280;40431;52.198;9.902;2023-04-04T07:16:57;102143.13;;;1.70;94.45
17525;BME280;40431;52.198;9.902;2023-04-04T07:19:23;102148.47;;;1.76;95.59
17525;BME280;40431;52.198;9.902;2023-04-04T07:21:53;102149.41;;;1.88;95.13
17525;BME280;40431;52.198;9.902;2023-04-04T07:24:20;102146.72;;;1.94;94.49
17525;BME280;40431;52.198;9.902;2023-04-04T07:26:47;102142.25;;;1.99;93.24
17525;BME280;40431;52.198;9.902;2023-04-04T07:29:13;102147.59;;;2.10;93.30
17525;BME280;40431;52.198;9.902;2023-04-04T07:31:40;102142.25;;;2.17;92.55
17525;BME280;40431;52.198;9.902;2023-04-04T07:34:06;102140.50;;;2.09;88.30
17525;BME280;40431;52.198;9.902;2023-04-04T07:36:32;102144.06;;;2.06;90.48
17525;BME280;40431;52.198;9.902;2023-04-04T07:38:59;102141.38;;;2.15;91.32
17525;BME280;40431;52.198;9.902;2023-04-04T07:41:27;102152.06;;;2.29;91.74
17525;BME280;40431;52.198;9.902;2023-04-04T07:43:53;102141.34;;;2.39;90.48
17525;BME280;40431;52.198;9.902;2023-04-04T07:46:20;102141.31;;;2.49;86.30
17525;BME280;40431;52.198;9.902;2023-04-04T07:48:46;102136.88;;;2.52;85.40
17525;BME280;40431;52.198;9.902;2023-04-04T07:51:14;102127.03;;;2.44;87.07
17525;BME280;40431;52.198;9.902;2023-04-04T07:53:40;102130.59;;;2.43;89.65
17525;BME280;40431;52.198;9.902;2023-04-04T07:56:06;102134.19;;;2.52;89.54
17525;BME280;40431;52.198;9.902;2023-04-04T07:58:35;102128.81;;;2.59;87.30
17525;BME280;40431;52.198;9.902;2023-04-04T08:01:02;102128.78;;;2.65;87.11
17525;BME280;40431;52.198;9.902;2023-04-04T08:03:28;102131.47;;;2.70;87.46
17525;BME280;40431;52.198;9.902;2023-04-04T08:05:55;102132.31;;;2.72;87.16
17525;BME280;40431;52.198;9.902;2023-04-04T08:08:21;102126.97;;;2.75;88.14
17525;BME280;40431;52.198;9.902;2023-04-04T08:10:48;102130.50;;;2.85;87.11
17525;BME280;40431;52.198;9.902;2023-04-04T08:13:14;102118.00;;;2.84;86.78
17525;BME280;40431;52.198;9.902;2023-04-04T08:15:42;102128.66;;;2.96;88.70
17525;BME280;40431;52.198;9.902;2023-04-04T08:18:09;102123.22;;;3.15;89.69
17525;BME280;40431;52.198;9.902;2023-04-04T08:20:35;102120.47;;;3.29;89.17
17525;BME280;40431;52.198;9.902;2023-04-04T08:23:02;102122.19;;;3.38;85.79
17525;BME280;40431;52.198;9.902;2023-04-04T08:25:28;102111.53;;;3.30;79.94
17525;BME280;40431;52.198;9.902;2023-04-04T08:27:54;102118.66;;;3.34;81.58
17525;BME280;40431;52.198;9.902;2023-04-04T08:30:21;102125.81;;;3.35;80.01
17525;BME280;40431;52.198;9.902;2023-04-04T08:32:49;102121.34;;;3.36;79.35
17525;BME280;40431;52.198;9.902;2023-04-04T08:35:15;102123.06;;;3.43;78.35
17525;BME280;40431;52.198;9.902;2023-04-04T08:37:45;102113.19;;;3.49;76.78
17525;BME280;40431;52.198;9.902;2023-04-04T08:40:12;102099.81;;;3.46;79.99
17525;BME280;40431;52.198;9.902;2023-04-04T08:42:40;102104.22;;;3.57;80.68
17525;BME280;40431;52.198;9.902;2023-04-04T08:45:08;102110.47;;;3.56;74.82
17525;BME280;40431;52.198;9.902;2023-04-04T08:47:37;102107.81;;;3.53;73.14
17525;BME280;40431;52.198;9.902;2023-04-04T08:50:06;102099.69;;;3.65;73.83
17525;BME280;40431;52.198;9.902;2023-04-04T08:52:34;102098.81;;;3.64;69.28
17525;BME280;40431;52.198;9.902;2023-04-04T08:55:01;102101.38;;;3.78;69.37
17525;BME280;40431;52.198;9.902;2023-04-04T08:57:29;102098.56;;;3.91;68.14
17525;BME280;40431;52.198;9.902;2023-04-04T08:59:57;102098.50;;;4.00;66.79
17525;BME280;40431;52.198;9.902;2023-04-04T09:02:28;102091.38;;;3.99;67.09
17525;BME280;40431;52.198;9.902;2023-04-04T09:04:57;102092.16;;;4.09;65.16
17525;BME280;40431;52.198;9.902;2023-04-04T09:07:26;102087.66;;;4.12;64.57
17525;BME280;40431;52.198;9.902;2023-04-04T09:09:53;102092.84;;;4.29;67.35
17525;BME280;40431;52.198;9.902;2023-04-04T09:12:20;102090.00;;;4.45;65.16
17525;BME280;40431;52.198;9.902;2023-04-04T09:14:49;102087.34;;;4.43;63.51
17525;BME280;40431;52.198;9.902;2023-04-04T09:17:16;102083.72;;;4.47;64.27
17525;BME280;40431;52.198;9.902;2023-04-04T09:19:42;102088.19;;;4.45;63.33
17525;BME280;40431;52.198;9.902;2023-04-04T09:22:09;102084.53;;;4.54;63.70
17525;BME280;40431;52.198;9.902;2023-04-04T09:24:39;102076.44;;;4.59;59.80
17525;BME280;40431;52.198;9.902;2023-04-04T09:27:07;102081.72;;;4.65;61.96
17525;BME280;40431;52.198;9.902;2023-04-04T09:29:35;102078.16;;;4.63;59.58
17525;BME280;40431;52.198;9.902;2023-04-04T09:32:02;102074.78;;;4.47;59.12
17525;BME280;40431;52.198;9.902;2023-04-04T09:34:29;102064.31;;;4.21;58.87
17525;BME280;40431;52.198;9.902;2023-04-04T09:36:56;102071.38;;;4.28;61.91
17525;BME280;40431;52.198;9.902;2023-04-04T09:39:22;102080.13;;;4.48;63.40
17525;BME280;40431;52.198;9.902;2023-04-04T09:41:50;102077.34;;;4.55;61.14
17525;BME280;40431;52.198;9.902;2023-04-04T09:44:17;102079.81;;;4.75;62.15
17525;BME280;40431;52.198;9.902;2023-04-04T09:46:43;102081.41;;;4.91;63.45
17525;BME280;40431;52.198;9.902;2023-04-04T09:49:11;102079.41;;;5.07;63.25
17525;BME280;40431;52.198;9.902;2023-04-04T09:51:47;102082.72;;;5.28;61.33
17525;BME280;40431;52.198;9.902;2023-04-04T09:54:19;102078.19;;;5.30;57.07
17525;BME280;40431;52.198;9.902;2023-04-04T09:56:46;102080.88;;;5.30;58.11
17525;BME280;40431;52.198;9.902;2023-04-04T09:59:14;102073.50;;;5.43;60.80
17525;BME280;40431;52.198;9.902;2023-04-04T10:01:42;102074.28;;;5.51;57.67
17525;BME280;40431;52.198;9.902;2023-04-04T10:04:10;102068.94;;;5.46;57.29
17525;BME280;40431;52.198;9.902;2023-04-04T10:06:36;102073.38;;;5.52;56.88
17525;BME280;40431;52.198;9.902;2023-04-04T10:09:06;102070.72;;;5.50;59.06
17525;BME280;40431;52.198;9.902;2023-04-04T10:11:34;102065.31;;;5.52;57.73
17525;BME280;40431;52.198;9.902;2023-04-04T10:14:02;102075.09;;;5.56;58.52
17525;BME280;40431;52.198;9.902;2023-04-04T10:16:32;102063.72;;;5.39;52.74
17525;BME280;40431;52.198;9.902;2023-04-04T10:19:03;102063.75;;;5.35;53.48
17525;BME280;40431;52.198;9.902;2023-04-04T10:21:29;102069.97;;;5.39;54.31
17525;BME280;40431;52.198;9.902;2023-04-04T10:23:57;102062.78;;;5.41;56.06
17525;BME280;40431;52.198;9.902;2023-04-04T10:26:24;102075.22;;;5.48;58.65
17525;BME280;40431;52.198;9.902;2023-04-04T10:28:51;102068.81;;;5.57;57.95
17525;BME280;40431;52.198;9.902;2023-04-04T10:31:21;102069.63;;;5.61;52.71
17525;BME280;40431;52.198;9.902;2023-04-04T10:33:55;102063.44;;;5.57;52.04
17525;BME280;40431;52.198;9.902;2023-04-04T10:36:29;102056.91;;;5.72;56.50
17525;BME280;40431;52.198;9.902;2023-04-04T10:39:10;102061.13;;;5.87;55.74
17525;BME280;40431;52.198;9.902;2023-04-04T10:41:39;102054.97;;;5.80;53.69
17525;BME280;40431;52.198;9.902;2023-04-04T10:44:12;102044.41;;;5.68;53.95
17525;BME280;40431;52.198;9.902;2023-04-04T10:46:42;102051.50;;;5.72;54.18
17525;BME280;40431;52.198;9.902;2023-04-04T10:49:13;102046.13;;;5.72;55.17
17525;BME280;40431;52.198;9.902;2023-04-04T10:51:40;102037.34;;;5.61;55.03
17525;BME280;40431;52.198;9.902;2023-04-04T10:54:08;102037.09;;;5.76;57.26
17525;BME280;40431;52.198;9.902;2023-04-04T10:56:35;102035.31;;;5.75;54.23
17525;BME280;40431;52.198;9.902;2023-04-04T10:59:10;102027.88;;;5.90;55.36
17525;BME280;40431;52.198;9.902;2023-04-04T11:01:53;102030.13;;;5.63;51.91
17525;BME280;40431;52.198;9.902;2023-04-04T11:04:29;102015.94;;;5.55;52.97
17525;BME280;40431;52.198;9.902;2023-04-04T11:07:10;102015.16;;;5.48;53.24
17525;BME280;40431;52.198;9.902;2023-04-04T11:09:47;102016.84;;;5.54;53.61
17525;BME280;40431;52.198;9.902;2023-04-04T11:12:14;102006.97;;;5.52;52.06
17525;BME280;40431;52.198;9.902;2023-04-04T11:14:54;102001.38;;;5.65;53.15
17525;BME280;40431;52.198;9.902;2023-04-04T11:17:39;102004.63;;;5.85;55.09
17525;BME280;40431;52.198;9.902;2023-04-04T11:20:08;102004.50;;;5.93;53.27
17525;BME280;40431;52.198;9.902;2023-04-04T11:22:34;101997.84;;;5.63;51.84
17525;BME280;40431;52.198;9.902;2023-04-04T11:25:30;101990.00;;;5.49;51.18
17525;BME280;40431;52.198;9.902;2023-04-04T11:27:57;101988.25;;;5.46;52.10
17525;BME280;40431;52.198;9.902;2023-04-04T11:30:23;101985.53;;;5.49;54.57
17525;BME280;40431;52.198;9.902;2023-04-04T11:32:50;101983.47;;;5.62;55.15
17525;BME280;40431;52.198;9.902;2023-04-04T11:35:18;101979.69;;;5.74;55.54
17525;BME280;40431;52.198;9.902;2023-04-04T11:37:57;101977.38;;;6.04;56.30
17525;BME280;40431;52.198;9.902;2023-04-04T11:40:34;101976.84;;;6.32;55.87
17525;BME280;40431;52.198;9.902;2023-04-04T11:43:06;101967.47;;;6.51;54.64
17525;BME280;40431;52.198;9.902;2023-04-04T11:45:34;101970.72;;;6.66;54.00
17525;BME280;40431;52.198;9.902;2023-04-04T11:48:02;101971.53;;;6.69;52.48
17525;BME280;40431;52.198;9.902;2023-04-04T11:50:34;101966.97;;;6.73;52.49
17525;BME280;40431;52.198;9.902;2023-04-04T11:53:05;101964.16;;;6.78;52.90
17525;BME280;40431;52.198;9.902;2023-04-04T11:55:37;101957.72;;;6.85;53.77
17525;BME280;40431;52.198;9.902;2023-04-04T11:58:06;101961.09;;;6.95;52.84
17525;BME280;40431;52.198;9.902;2023-04-04T12:00:34;101956.34;;;7.06;52.00
17525;BME280;40431;52.198;9.902;2023-04-04T12:03:05;101949.50;;;7.29;52.30
17525;BME280;40431;52.198;9.902;2023-04-04T12:05:34;101940.41;;;7.33;49.78
17525;BME280;40431;52.198;9.902;2023-04-04T12:08:02;101934.09;;;7.32;49.73
17525;BME280;40431;52.198;9.902;2023-04-04T12:10:30;101935.06;;;7.30;48.97
17525;BME280;40431;52.198;9.902;2023-04-04T12:12:57;101932.63;;;7.19;50.15
17525;BME280;40431;52.198;9.902;2023-04-04T12:15:26;101928.16;;;7.19;51.96
17525;BME280;40431;52.198;9.902;2023-04-04T12:17:54;101924.75;;;7.11;49.88
17525;BME280;40431;52.198;9.902;2023-04-04T12:20:21;101920.63;;;6.95;48.20
17525;BME280;40431;52.198;9.902;2023-04-04T12:22:49;101926.34;;;6.82;47.85
17525;BME280;40431;52.198;9.902;2023-04-04T12:25:17;101921.72;;;6.88;49.63
17525;BME280;40431;52.198;9.902;2023-04-04T12:27:45;101922.16;;;7.07;49.69
17525;BME280;40431;52.198;9.902;2023-04-04T12:30:12;101925.22;;;7.29;50.55
17525;BME280;40431;52.198;9.902;2023-04-04T12:32:41;101914.09;;;7.41;50.19
17525;BME280;40431;52.198;9.902;2023-04-04T12:35:09;101912.31;;;7.40;49.98
17525;BME280;40431;52.198;9.902;2023-04-04T12:37:36;101910.63;;;7.36;51.76
17525;BME280;40431;52.198;9.902;2023-04-04T12:40:05;101902.13;;;7.17;50.88
17525;BME280;40431;52.198;9.902;2023-04-04T12:42:33;101902.03;;;7.20;51.03
17525;BME280;40431;52.198;9.902;2023-04-04T12:45:00;101895.59;;;6.90;50.85
17525;BME280;40431;52.198;9.902;2023-04-04T12:47:29;101897.63;;;6.80;51.67
17525;BME280;40431;52.198;9.902;2023-04-04T12:49:56;101899.59;;;6.73;52.55
17525;BME280;40431;52.198;9.902;2023-04-04T12:52:26;101902.19;;;6.76;51.41
17525;BME280;40431;52.198;9.902;2023-04-04T12:54:57;101893.06;;;6.83;50.10
17525;BME280;40431;52.198;9.902;2023-04-04T12:57:26;101884.47;;;6.66;48.56